Primera, Texas
Current Conditions -  °F | °C
As of 6:52 AM on Wednesday 22 Oct 2014 (Local Time) from KHRL Reporting Station
Light Rain Light Rain  
Wind Chill: 23°   Ceiling: 4300
Heat Index: 23°   Visibility: 10mi
Dew Point: 22°   Wind: 0mph
Humidity: 93%   Direction: NA
Pressure: 29.95"   Gusts: NA
Location:  26.2089°N, 97.6849°W
Report Text: KHRL 221152Z 00000KT 10SM -RA SCT028 BKN043 OVC055 23/22 A2995 RMK AO2 RAB45 SLP143 P0001 60006 70033 T02280217 10233 20222 53010
Loading
Personal Weather Stations






























Interactive Weather Map
Tropical Storm Tracking
New forecast layout! Learn more

10-Day Weather Forecast

Advertisements
Track Severe Weather on mobile